sensor_id;sensor_type;location;lat;lon;timestamp;P1;durP1;ratioP1;P2;durP2;ratioP2
74324;SDS011;62741;51.948;7.152;2022-08-04T11:16:01;5.75;;;1.83;;
74324;SDS011;62741;51.948;7.152;2022-08-04T11:18:38;5.90;;;2.33;;
74324;SDS011;62741;51.948;7.152;2022-08-04T11:21:16;5.22;;;1.95;;
74324;SDS011;62741;51.948;7.152;2022-08-04T11:23:52;4.88;;;1.90;;
74324;SDS011;62741;51.948;7.152;2022-08-04T11:26:31;6.50;;;1.90;;
74324;SDS011;62741;51.948;7.152;2022-08-04T11:29:11;10.13;;;2.15;;
74324;SDS011;62741;51.948;7.152;2022-08-04T11:31:47;6.68;;;1.83;;
74324;SDS011;62741;51.948;7.152;2022-08-04T11:34:19;6.38;;;2.05;;
74324;SDS011;62741;51.948;7.152;2022-08-04T11:36:50;5.25;;;1.90;;
74324;SDS011;62741;51.948;7.152;2022-08-04T11:39:28;2.92;;;1.80;;
74324;SDS011;62741;51.948;7.152;2022-08-04T11:42:03;6.22;;;2.13;;
74324;SDS011;62741;51.948;7.152;2022-08-04T11:44:42;4.35;;;1.70;;
74324;SDS011;62741;51.948;7.152;2022-08-04T11:47:19;5.25;;;2.05;;
74324;SDS011;62741;51.948;7.152;2022-08-04T11:49:57;2.97;;;1.63;;
74324;SDS011;62741;51.948;7.152;2022-08-04T11:54:09;3.13;;;1.73;;
74324;SDS011;62741;51.948;7.152;2022-08-04T11:56:37;3.42;;;1.35;;
74324;SDS011;62741;51.948;7.152;2022-08-04T11:59:05;3.88;;;1.92;;
74324;SDS011;62741;51.948;7.152;2022-08-04T12:01:34;4.03;;;1.70;;
74324;SDS011;62741;51.948;7.152;2022-08-04T12:04:16;3.92;;;1.75;;
74324;SDS011;62741;51.948;7.152;2022-08-04T12:06:54;3.08;;;1.42;;
74324;SDS011;62741;51.948;7.152;2022-08-04T12:09:31;2.22;;;1.40;;
74324;SDS011;62741;51.948;7.152;2022-08-04T12:12:11;2.25;;;1.40;;
74324;SDS011;62741;51.948;7.152;2022-08-04T12:14:48;3.03;;;1.80;;
74324;SDS011;62741;51.948;7.152;2022-08-04T12:17:24;2.30;;;1.45;;
74324;SDS011;62741;51.948;7.152;2022-08-04T12:20:02;2.78;;;1.40;;
74324;SDS011;62741;51.948;7.152;2022-08-04T12:22:34;2.35;;;1.58;;
74324;SDS011;62741;51.948;7.152;2022-08-04T12:25:11;3.75;;;1.85;;
74324;SDS011;62741;51.948;7.152;2022-08-04T12:27:45;5.07;;;1.67;;
74324;SDS011;62741;51.948;7.152;2022-08-04T12:30:20;2.58;;;1.67;;
74324;SDS011;62741;51.948;7.152;2022-08-04T12:32:50;2.22;;;1.65;;
74324;SDS011;62741;51.948;7.152;2022-08-04T12:35:26;2.70;;;1.30;;
74324;SDS011;62741;51.948;7.152;2022-08-04T12:38:01;3.55;;;1.50;;
74324;SDS011;62741;51.948;7.152;2022-08-04T12:40:35;4.97;;;1.52;;
74324;SDS011;62741;51.948;7.152;2022-08-04T12:43:10;2.72;;;1.55;;
74324;SDS011;62741;51.948;7.152;2022-08-04T12:45:48;3.20;;;1.60;;
74324;SDS011;62741;51.948;7.152;2022-08-04T12:48:18;3.30;;;1.60;;
74324;SDS011;62741;51.948;7.152;2022-08-04T12:50:49;3.30;;;1.42;;
74324;SDS011;62741;51.948;7.152;2022-08-04T12:53:19;2.75;;;1.30;;
74324;SDS011;62741;51.948;7.152;2022-08-04T12:55:53;5.78;;;1.70;;
74324;SDS011;62741;51.948;7.152;2022-08-04T12:58:23;2.08;;;1.33;;
74324;SDS011;62741;51.948;7.152;2022-08-04T13:00:55;2.58;;;1.38;;
74324;SDS011;62741;51.948;7.152;2022-08-04T13:03:27;3.88;;;1.73;;
74324;SDS011;62741;51.948;7.152;2022-08-04T13:06:03;2.35;;;1.30;;
74324;SDS011;62741;51.948;7.152;2022-08-04T13:08:34;3.17;;;2.15;;
74324;SDS011;62741;51.948;7.152;2022-08-04T13:11:06;1.98;;;1.33;;
74324;SDS011;62741;51.948;7.152;2022-08-04T13:13:35;2.63;;;1.50;;
74324;SDS011;62741;51.948;7.152;2022-08-04T13:16:05;4.38;;;1.88;;
74324;SDS011;62741;51.948;7.152;2022-08-04T13:18:36;3.13;;;1.20;;
74324;SDS011;62741;51.948;7.152;2022-08-04T13:21:08;2.63;;;1.40;;
74324;SDS011;62741;51.948;7.152;2022-08-04T13:23:38;2.63;;;1.42;;
74324;SDS011;62741;51.948;7.152;2022-08-04T13:26:11;3.40;;;1.52;;
74324;SDS011;62741;51.948;7.152;2022-08-04T13:28:41;2.40;;;1.30;;
74324;SDS011;62741;51.948;7.152;2022-08-04T13:31:13;1.67;;;1.20;;
74324;SDS011;62741;51.948;7.152;2022-08-04T13:33:44;2.50;;;1.40;;
74324;SDS011;62741;51.948;7.152;2022-08-04T13:36:15;4.03;;;1.35;;
74324;SDS011;62741;51.948;7.152;2022-08-04T13:38:45;2.70;;;1.75;;
74324;SDS011;62741;51.948;7.152;2022-08-04T13:41:18;2.55;;;1.63;;
74324;SDS011;62741;51.948;7.152;2022-08-04T13:43:48;2.80;;;1.63;;
74324;SDS011;62741;51.948;7.152;2022-08-04T13:46:23;5.65;;;1.83;;
74324;SDS011;62741;51.948;7.152;2022-08-04T13:48:54;1.98;;;1.35;;
74324;SDS011;62741;51.948;7.152;2022-08-04T13:51:24;2.42;;;1.30;;
74324;SDS011;62741;51.948;7.152;2022-08-04T13:53:54;1.90;;;1.35;;
74324;SDS011;62741;51.948;7.152;2022-08-04T13:56:25;2.60;;;1.40;;
74324;SDS011;62741;51.948;7.152;2022-08-04T13:58:59;2.08;;;1.30;;
74324;SDS011;62741;51.948;7.152;2022-08-04T14:01:28;3.13;;;1.58;;
74324;SDS011;62741;51.948;7.152;2022-08-04T14:03:58;2.97;;;1.92;;
74324;SDS011;62741;51.948;7.152;2022-08-04T14:06:35;2.85;;;1.52;;
74324;SDS011;62741;51.948;7.152;2022-08-04T14:09:15;2.88;;;1.73;;
74324;SDS011;62741;51.948;7.152;2022-08-04T14:11:46;3.55;;;1.85;;
74324;SDS011;62741;51.948;7.152;2022-08-04T14:14:17;3.03;;;1.50;;
74324;SDS011;62741;51.948;7.152;2022-08-04T14:16:53;2.10;;;1.48;;
74324;SDS011;62741;51.948;7.152;2022-08-04T14:21:53;1.50;;;1.20;;
74324;SDS011;62741;51.948;7.152;2022-08-04T14:24:23;2.85;;;1.65;;
74324;SDS011;62741;51.948;7.152;2022-08-04T14:26:54;3.97;;;1.50;;
74324;SDS011;62741;51.948;7.152;2022-08-04T14:29:24;2.70;;;1.45;;
74324;SDS011;62741;51.948;7.152;2022-08-04T14:32:02;3.70;;;1.97;;
74324;SDS011;62741;51.948;7.152;2022-08-04T14:34:36;2.20;;;1.40;;
74324;SDS011;62741;51.948;7.152;2022-08-04T14:37:06;2.10;;;1.45;;
74324;SDS011;62741;51.948;7.152;2022-08-04T14:39:36;2.55;;;1.17;;
74324;SDS011;62741;51.948;7.152;2022-08-04T14:42:06;2.38;;;1.27;;
74324;SDS011;62741;51.948;7.152;2022-08-04T14:44:51;2.17;;;1.40;;
74324;SDS011;62741;51.948;7.152;2022-08-04T14:47:27;3.22;;;1.65;;
74324;SDS011;62741;51.948;7.152;2022-08-04T14:50:05;1.77;;;1.40;;
74324;SDS011;62741;51.948;7.152;2022-08-04T14:52:33;6.18;;;1.55;;
74324;SDS011;62741;51.948;7.152;2022-08-04T14:55:17;3.90;;;2.03;;
74324;SDS011;62741;51.948;7.152;2022-08-04T14:57:48;3.75;;;2.10;;
74324;SDS011;62741;51.948;7.152;2022-08-04T15:00:23;2.85;;;1.20;;
74324;SDS011;62741;51.948;7.152;2022-08-04T15:02:52;2.05;;;1.45;;
74324;SDS011;62741;51.948;7.152;2022-08-04T15:05:25;2.83;;;1.60;;
74324;SDS011;62741;51.948;7.152;2022-08-04T15:07:55;1.73;;;1.10;;
74324;SDS011;62741;51.948;7.152;2022-08-04T15:10:22;3.00;;;1.40;;
74324;SDS011;62741;51.948;7.152;2022-08-04T15:12:51;2.28;;;1.48;;
74324;SDS011;62741;51.948;7.152;2022-08-04T15:15:18;2.78;;;1.67;;
74324;SDS011;62741;51.948;7.152;2022-08-04T15:17:45;2.88;;;1.48;;
74324;SDS011;62741;51.948;7.152;2022-08-04T15:20:12;2.47;;;1.50;;
74324;SDS011;62741;51.948;7.152;2022-08-04T15:22:41;2.80;;;1.20;;
74324;SDS011;62741;51.948;7.152;2022-08-04T15:25:08;2.67;;;1.55;;
74324;SDS011;62741;51.948;7.152;2022-08-04T15:27:37;2.33;;;1.30;;
74324;SDS011;62741;51.948;7.152;2022-08-04T15:30:07;3.42;;;1.40;;
74324;SDS011;62741;51.948;7.152;2022-08-04T15:32:38;4.70;;;1.70;;
74324;SDS011;62741;51.948;7.152;2022-08-04T15:35:12;3.42;;;1.40;;
74324;SDS011;62741;51.948;7.152;2022-08-04T15:37:48;1.88;;;1.10;;
74324;SDS011;62741;51.948;7.152;2022-08-04T15:40:26;3.15;;;1.45;;
74324;SDS011;62741;51.948;7.152;2022-08-04T15:43:03;2.85;;;1.95;;
74324;SDS011;62741;51.948;7.152;2022-08-04T15:45:49;1.73;;;1.20;;
74324;SDS011;62741;51.948;7.152;2022-08-04T15:48:22;3.35;;;1.50;;
74324;SDS011;62741;51.948;7.152;2022-08-04T15:51:09;3.90;;;1.55;;
74324;SDS011;62741;51.948;7.152;2022-08-04T15:56:48;6.78;;;1.63;;
74324;SDS011;62741;51.948;7.152;2022-08-04T16:02:37;3.20;;;1.25;;
74324;SDS011;62741;51.948;7.152;2022-08-04T16:08:08;3.17;;;1.23;;
74324;SDS011;62741;51.948;7.152;2022-08-04T16:10:40;6.07;;;1.70;;
74324;SDS011;62741;51.948;7.152;2022-08-04T16:13:13;2.00;;;1.13;;
74324;SDS011;62741;51.948;7.152;2022-08-04T16:15:44;3.15;;;1.20;;
74324;SDS011;62741;51.948;7.152;2022-08-04T16:18:36;2.22;;;1.20;;
74324;SDS011;62741;51.948;7.152;2022-08-04T16:21:16;2.42;;;1.55;;
74324;SDS011;62741;51.948;7.152;2022-08-04T16:23:54;2.95;;;1.38;;
74324;SDS011;62741;51.948;7.152;2022-08-04T16:26:55;2.22;;;1.67;;
74324;SDS011;62741;51.948;7.152;2022-08-04T16:29:34;2.55;;;1.30;;
74324;SDS011;62741;51.948;7.152;2022-08-04T16:32:07;2.13;;;1.20;;
74324;SDS011;62741;51.948;7.152;2022-08-04T16:34:38;3.53;;;1.20;;
74324;SDS011;62741;51.948;7.152;2022-08-04T16:37:07;2.20;;;1.13;;
74324;SDS011;62741;51.948;7.152;2022-08-04T16:39:37;3.08;;;1.42;;
74324;SDS011;62741;51.948;7.152;2022-08-04T16:45:01;1.70;;;1.25;;
74324;SDS011;62741;51.948;7.152;2022-08-04T16:50:30;1.50;;;1.10;;
74324;SDS011;62741;51.948;7.152;2022-08-04T16:52:59;2.53;;;1.27;;
74324;SDS011;62741;51.948;7.152;2022-08-04T16:55:36;3.65;;;1.42;;
74324;SDS011;62741;51.948;7.152;2022-08-04T16:58:04;4.43;;;1.25;;
74324;SDS011;62741;51.948;7.152;2022-08-04T17:00:32;1.93;;;1.20;;
74324;SDS011;62741;51.948;7.152;2022-08-04T17:03:02;1.20;;;1.05;;
74324;SDS011;62741;51.948;7.152;2022-08-04T17:05:32;2.85;;;1.35;;
74324;SDS011;62741;51.948;7.152;2022-08-04T17:08:01;3.13;;;1.75;;
74324;SDS011;62741;51.948;7.152;2022-08-04T17:10:30;3.47;;;1.30;;
74324;SDS011;62741;51.948;7.152;2022-08-04T17:13:01;2.15;;;1.23;;
74324;SDS011;62741;51.948;7.152;2022-08-04T17:15:48;2.53;;;1.40;;
74324;SDS011;62741;51.948;7.152;2022-08-04T17:18:18;3.30;;;2.33;;
74324;SDS011;62741;51.948;7.152;2022-08-04T17:20:48;2.75;;;1.45;;
74324;SDS011;62741;51.948;7.152;2022-08-04T17:23:26;2.35;;;1.30;;
74324;SDS011;62741;51.948;7.152;2022-08-04T17:26:03;3.17;;;1.75;;
74324;SDS011;62741;51.948;7.152;2022-08-04T17:28:33;1.80;;;1.10;;
74324;SDS011;62741;51.948;7.152;2022-08-04T17:31:01;2.30;;;1.42;;
74324;SDS011;62741;51.948;7.152;2022-08-04T17:33:32;1.40;;;1.08;;
74324;SDS011;62741;51.948;7.152;2022-08-04T17:36:01;2.92;;;2.08;;
74324;SDS011;62741;51.948;7.152;2022-08-04T17:38:31;2.03;;;1.13;;
74324;SDS011;62741;51.948;7.152;2022-08-04T17:41:03;2.15;;;1.25;;
74324;SDS011;62741;51.948;7.152;2022-08-04T17:43:36;1.50;;;1.08;;
74324;SDS011;62741;51.948;7.152;2022-08-04T17:46:23;1.45;;;0.98;;
74324;SDS011;62741;51.948;7.152;2022-08-04T17:49:03;2.97;;;1.30;;
74324;SDS011;62741;51.948;7.152;2022-08-04T17:51:35;2.00;;;1.10;;
74324;SDS011;62741;51.948;7.152;2022-08-04T17:54:09;2.83;;;1.20;;
74324;SDS011;62741;51.948;7.152;2022-08-04T17:56:39;3.45;;;1.20;;
74324;SDS011;62741;51.948;7.152;2022-08-04T17:59:08;1.65;;;1.10;;
74324;SDS011;62741;51.948;7.152;2022-08-04T18:01:41;2.60;;;1.17;;
74324;SDS011;62741;51.948;7.152;2022-08-04T18:04:31;1.15;;;0.80;;
74324;SDS011;62741;51.948;7.152;2022-08-04T18:07:04;2.55;;;1.63;;
74324;SDS011;62741;51.948;7.152;2022-08-04T18:09:35;1.73;;;1.02;;
74324;SDS011;62741;51.948;7.152;2022-08-04T18:12:06;2.25;;;1.35;;
74324;SDS011;62741;51.948;7.152;2022-08-04T18:14:36;3.10;;;1.40;;
74324;SDS011;62741;51.948;7.152;2022-08-04T18:17:09;2.60;;;1.40;;
74324;SDS011;62741;51.948;7.152;2022-08-04T18:19:48;2.00;;;1.20;;
74324;SDS011;62741;51.948;7.152;2022-08-04T18:22:18;1.27;;;0.90;;
74324;SDS011;62741;51.948;7.152;2022-08-04T18:24:45;5.30;;;1.38;;
74324;SDS011;62741;51.948;7.152;2022-08-04T18:27:12;1.92;;;1.15;;
74324;SDS011;62741;51.948;7.152;2022-08-04T18:29:40;2.05;;;1.23;;
74324;SDS011;62741;51.948;7.152;2022-08-04T18:32:08;2.73;;;1.57;;
74324;SDS011;62741;51.948;7.152;2022-08-04T18:34:36;3.15;;;1.27;;
74324;SDS011;62741;51.948;7.152;2022-08-04T18:37:03;1.45;;;1.00;;
74324;SDS011;62741;51.948;7.152;2022-08-04T18:39:31;2.27;;;1.10;;
74324;SDS011;62741;51.948;7.152;2022-08-04T18:41:58;1.67;;;1.13;;
74324;SDS011;62741;51.948;7.152;2022-08-04T18:44:26;2.95;;;1.33;;
74324;SDS011;62741;51.948;7.152;2022-08-04T18:46:53;1.80;;;1.27;;
74324;SDS011;62741;51.948;7.152;2022-08-04T18:49:20;2.88;;;1.30;;
74324;SDS011;62741;51.948;7.152;2022-08-04T18:51:48;1.35;;;0.85;;
74324;SDS011;62741;51.948;7.152;2022-08-04T18:54:16;1.15;;;0.85;;
74324;SDS011;62741;51.948;7.152;2022-08-04T18:56:44;1.90;;;1.02;;
74324;SDS011;62741;51.948;7.152;2022-08-04T18:59:11;1.33;;;0.90;;
74324;SDS011;62741;51.948;7.152;2022-08-04T19:01:38;2.00;;;1.17;;
74324;SDS011;62741;51.948;7.152;2022-08-04T19:04:05;1.70;;;1.08;;
74324;SDS011;62741;51.948;7.152;2022-08-04T19:06:33;1.60;;;1.10;;
74324;SDS011;62741;51.948;7.152;2022-08-04T19:09:01;1.48;;;1.02;;
74324;SDS011;62741;51.948;7.152;2022-08-04T19:11:29;2.15;;;1.00;;
74324;SDS011;62741;51.948;7.152;2022-08-04T19:13:58;1.13;;;0.82;;
74324;SDS011;62741;51.948;7.152;2022-08-04T19:16:26;1.63;;;1.00;;
74324;SDS011;62741;51.948;7.152;2022-08-04T19:18:54;3.03;;;1.02;;
74324;SDS011;62741;51.948;7.152;2022-08-04T19:21:21;1.87;;;1.00;;
74324;SDS011;62741;51.948;7.152;2022-08-04T19:23:49;1.38;;;0.80;;
74324;SDS011;62741;51.948;7.152;2022-08-04T19:26:16;1.13;;;0.85;;
74324;SDS011;62741;51.948;7.152;2022-08-04T19:28:42;1.92;;;1.00;;
74324;SDS011;62741;51.948;7.152;2022-08-04T19:31:11;1.70;;;0.90;;
74324;SDS011;62741;51.948;7.152;2022-08-04T19:33:38;1.50;;;1.20;;
74324;SDS011;62741;51.948;7.152;2022-08-04T19:36:07;2.17;;;1.00;;
74324;SDS011;62741;51.948;7.152;2022-08-04T19:43:30;2.88;;;0.85;;
74324;SDS011;62741;51.948;7.152;2022-08-04T19:45:58;1.20;;;0.80;;
74324;SDS011;62741;51.948;7.152;2022-08-04T19:48:26;1.43;;;0.93;;
74324;SDS011;62741;51.948;7.152;2022-08-04T19:50:53;1.45;;;1.05;;
74324;SDS011;62741;51.948;7.152;2022-08-04T19:53:20;2.75;;;1.20;;
74324;SDS011;62741;51.948;7.152;2022-08-04T19:55:48;2.33;;;1.58;;
74324;SDS011;62741;51.948;7.152;2022-08-04T19:58:15;1.37;;;0.83;;
74324;SDS011;62741;51.948;7.152;2022-08-04T20:00:43;1.10;;;0.90;;
74324;SDS011;62741;51.948;7.152;2022-08-04T20:03:11;1.00;;;0.82;;
74324;SDS011;62741;51.948;7.152;2022-08-04T20:05:40;0.82;;;0.70;;
74324;SDS011;62741;51.948;7.152;2022-08-04T20:08:07;1.98;;;0.93;;
74324;SDS011;62741;51.948;7.152;2022-08-04T20:10:34;1.50;;;1.00;;
74324;SDS011;62741;51.948;7.152;2022-08-04T20:13:02;2.22;;;1.60;;
74324;SDS011;62741;51.948;7.152;2022-08-04T20:15:30;1.58;;;1.08;;
74324;SDS011;62741;51.948;7.152;2022-08-04T20:17:58;1.77;;;1.10;;
74324;SDS011;62741;51.948;7.152;2022-08-04T20:20:25;2.20;;;1.10;;
74324;SDS011;62741;51.948;7.152;2022-08-04T20:22:53;1.73;;;0.98;;
74324;SDS011;62741;51.948;7.152;2022-08-04T20:25:20;1.50;;;1.00;;
74324;SDS011;62741;51.948;7.152;2022-08-04T20:27:47;1.30;;;0.60;;
74324;SDS011;62741;51.948;7.152;2022-08-04T20:30:14;1.70;;;0.90;;
74324;SDS011;62741;51.948;7.152;2022-08-04T20:32:40;1.15;;;0.90;;
74324;SDS011;62741;51.948;7.152;2022-08-04T20:35:08;2.65;;;2.10;;
74324;SDS011;62741;51.948;7.152;2022-08-04T20:40:08;1.60;;;0.85;;
74324;SDS011;62741;51.948;7.152;2022-08-04T20:42:38;2.47;;;0.77;;
74324;SDS011;62741;51.948;7.152;2022-08-04T20:45:05;0.77;;;0.70;;
74324;SDS011;62741;51.948;7.152;2022-08-04T20:47:33;1.75;;;1.00;;
74324;SDS011;62741;51.948;7.152;2022-08-04T20:50:00;3.13;;;1.13;;
74324;SDS011;62741;51.948;7.152;2022-08-04T20:52:29;1.15;;;0.70;;
74324;SDS011;62741;51.948;7.152;2022-08-04T20:54:57;1.83;;;1.23;;
74324;SDS011;62741;51.948;7.152;2022-08-04T20:57:27;0.80;;;0.80;;
74324;SDS011;62741;51.948;7.152;2022-08-04T20:59:53;1.67;;;1.23;;
74324;SDS011;62741;51.948;7.152;2022-08-04T21:02:20;1.98;;;1.00;;
74324;SDS011;62741;51.948;7.152;2022-08-04T21:04:49;1.27;;;1.08;;
74324;SDS011;62741;51.948;7.152;2022-08-04T21:07:16;1.52;;;0.85;;
74324;SDS011;62741;51.948;7.152;2022-08-04T21:09:43;2.05;;;0.82;;
74324;SDS011;62741;51.948;7.152;2022-08-04T21:12:12;1.58;;;0.75;;
74324;SDS011;62741;51.948;7.152;2022-08-04T21:14:42;1.70;;;0.85;;
74324;SDS011;62741;51.948;7.152;2022-08-04T21:17:10;1.23;;;0.98;;
74324;SDS011;62741;51.948;7.152;2022-08-04T21:19:37;1.88;;;1.00;;
74324;SDS011;62741;51.948;7.152;2022-08-04T21:22:05;1.70;;;0.82;;
74324;SDS011;62741;51.948;7.152;2022-08-04T21:24:32;1.30;;;1.13;;
74324;SDS011;62741;51.948;7.152;2022-08-04T21:27:00;1.40;;;0.82;;
74324;SDS011;62741;51.948;7.152;2022-08-04T21:29:30;1.67;;;0.80;;
74324;SDS011;62741;51.948;7.152;2022-08-04T21:31:59;0.70;;;0.70;;
74324;SDS011;62741;51.948;7.152;2022-08-04T21:34:27;1.30;;;0.90;;
74324;SDS011;62741;51.948;7.152;2022-08-04T21:36:57;1.45;;;0.93;;
74324;SDS011;62741;51.948;7.152;2022-08-04T21:39:24;0.93;;;0.82;;
74324;SDS011;62741;51.948;7.152;2022-08-04T21:41:51;0.80;;;0.80;;
74324;SDS011;62741;51.948;7.152;2022-08-04T21:44:18;0.85;;;0.70;;
74324;SDS011;62741;51.948;7.152;2022-08-04T21:46:45;1.58;;;0.80;;
74324;SDS011;62741;51.948;7.152;2022-08-04T21:49:13;0.83;;;0.73;;
74324;SDS011;62741;51.948;7.152;2022-08-04T21:51:40;1.27;;;0.95;;
74324;SDS011;62741;51.948;7.152;2022-08-04T21:54:07;4.07;;;1.05;;
74324;SDS011;62741;51.948;7.152;2022-08-04T21:56:35;2.10;;;0.82;;
74324;SDS011;62741;51.948;7.152;2022-08-04T21:59:03;2.10;;;1.02;;
74324;SDS011;62741;51.948;7.152;2022-08-04T22:01:31;2.00;;;0.90;;
74324;SDS011;62741;51.948;7.152;2022-08-04T22:03:59;1.00;;;0.70;;
74324;SDS011;62741;51.948;7.152;2022-08-04T22:06:27;1.13;;;0.85;;
74324;SDS011;62741;51.948;7.152;2022-08-04T22:08:54;1.00;;;0.60;;
74324;SDS011;62741;51.948;7.152;2022-08-04T22:11:23;1.75;;;0.80;;
74324;SDS011;62741;51.948;7.152;2022-08-04T22:13:54;1.10;;;0.82;;
74324;SDS011;62741;51.948;7.152;2022-08-04T22:16:23;1.65;;;0.80;;
74324;SDS011;62741;51.948;7.152;2022-08-04T22:18:50;2.95;;;0.80;;
74324;SDS011;62741;51.948;7.152;2022-08-04T22:21:18;1.80;;;0.98;;
74324;SDS011;62741;51.948;7.152;2022-08-04T22:23:46;1.50;;;0.95;;
74324;SDS011;62741;51.948;7.152;2022-08-04T22:26:14;2.05;;;0.80;;
74324;SDS011;62741;51.948;7.152;2022-08-04T22:28:42;0.77;;;0.60;;
74324;SDS011;62741;51.948;7.152;2022-08-04T22:31:09;1.92;;;0.80;;
74324;SDS011;62741;51.948;7.152;2022-08-04T22:33:38;1.92;;;1.17;;
74324;SDS011;62741;51.948;7.152;2022-08-04T22:36:06;1.55;;;0.80;;
74324;SDS011;62741;51.948;7.152;2022-08-04T22:38:34;0.93;;;0.73;;
74324;SDS011;62741;51.948;7.152;2022-08-04T22:41:03;0.90;;;0.80;;
74324;SDS011;62741;51.948;7.152;2022-08-04T22:43:33;1.83;;;0.82;;
74324;SDS011;62741;51.948;7.152;2022-08-04T22:46:02;1.02;;;0.70;;
74324;SDS011;62741;51.948;7.152;2022-08-04T22:48:32;2.58;;;1.10;;
74324;SDS011;62741;51.948;7.152;2022-08-04T22:51:01;1.42;;;0.77;;
74324;SDS011;62741;51.948;7.152;2022-08-04T22:53:30;1.10;;;0.60;;
74324;SDS011;62741;51.948;7.152;2022-08-04T22:56:00;2.03;;;0.80;;
74324;SDS011;62741;51.948;7.152;2022-08-04T22:58:30;2.00;;;0.88;;
74324;SDS011;62741;51.948;7.152;2022-08-04T23:00:57;1.90;;;0.93;;
74324;SDS011;62741;51.948;7.152;2022-08-04T23:03:24;2.37;;;1.10;;
74324;SDS011;62741;51.948;7.152;2022-08-04T23:05:51;1.52;;;0.93;;
74324;SDS011;62741;51.948;7.152;2022-08-04T23:08:18;1.17;;;0.90;;
74324;SDS011;62741;51.948;7.152;2022-08-04T23:10:45;1.10;;;0.75;;
74324;SDS011;62741;51.948;7.152;2022-08-04T23:13:13;2.67;;;0.90;;
74324;SDS011;62741;51.948;7.152;2022-08-04T23:15:40;1.23;;;0.73;;
74324;SDS011;62741;51.948;7.152;2022-08-04T23:18:07;1.13;;;0.70;;
74324;SDS011;62741;51.948;7.152;2022-08-04T23:20:34;1.42;;;1.13;;
74324;SDS011;62741;51.948;7.152;2022-08-04T23:25:29;2.30;;;0.80;;
74324;SDS011;62741;51.948;7.152;2022-08-04T23:27:56;1.42;;;0.90;;
74324;SDS011;62741;51.948;7.152;2022-08-04T23:30:25;1.90;;;0.98;;
74324;SDS011;62741;51.948;7.152;2022-08-04T23:32:52;0.65;;;0.65;;
74324;SDS011;62741;51.948;7.152;2022-08-04T23:35:19;2.25;;;0.88;;
74324;SDS011;62741;51.948;7.152;2022-08-04T23:37:46;2.63;;;0.95;;
74324;SDS011;62741;51.948;7.152;2022-08-04T23:40:13;2.58;;;1.15;;
74324;SDS011;62741;51.948;7.152;2022-08-04T23:42:40;2.35;;;0.93;;
74324;SDS011;62741;51.948;7.152;2022-08-04T23:45:07;1.83;;;1.20;;
74324;SDS011;62741;51.948;7.152;2022-08-04T23:47:36;1.50;;;1.00;;
74324;SDS011;62741;51.948;7.152;2022-08-04T23:50:03;2.13;;;1.02;;
74324;SDS011;62741;51.948;7.152;2022-08-04T23:52:30;1.40;;;0.93;;
74324;SDS011;62741;51.948;7.152;2022-08-04T23:54:57;2.72;;;0.70;;
74324;SDS011;62741;51.948;7.152;2022-08-04T23:57:25;1.00;;;0.70;;
74324;SDS011;62741;51.948;7.152;2022-08-04T23:59:53;2.58;;;0.82;;
